Terminal Aerodrome Forecast
Issued by NWS

Home | Current Version | Previous Version | Text Only | Print | Product List | Glossary On
Versions: 1 2 3 4 5 6 7 8 9 10 11 12 13 14 15 16 17 18 19 20 21 22 23 24 25 26 27
000
FTAK31 PAFA 052337
TAFAOR
TAF
PAOR 052337Z 0600/0624 30004KT P6SM FEW070 SCT100 SCT200
     FM060400 VRB02KT P6SM SCT100 SCT200
     FM061800 13005KT P6SM BKN200=

USA.gov is the U.S. government's official web portal to all federal, state and local government web resources and services.